Time;durP1;ratioP1;P1;durP2;ratioP2;P2;SDS_P1;SDS_P2;PMS_P1;PMS_P2;Temp;Humidity;BMP_temperature;BMP_pressure;BME280_temperature;BME280_humidity;BME280_pressure;Samples;Min_cycle;Max_cycle;Signal;HPM_P1;HPM_P2
2022/11/21 00:00:18;;;;;;;0.70;0.50;;;8.20;99.90;;;;;;7395774;19;20143;-77
2022/11/21 00:02:44;;;;;;;0.40;0.30;;;8.40;99.90;;;;;;7395515;19;20151;-75
2022/11/21 00:05:10;;;;;;;0.60;0.50;;;8.40;99.90;;;;;;7394842;19;20641;-75
2022/11/21 00:07:36;;;;;;;0.40;0.40;;;8.30;99.90;;;;;;7393558;19;20123;-74
2022/11/21 00:10:02;;;;;;;0.67;0.40;;;8.00;99.90;;;;;;7394804;19;20143;-76
2022/11/21 00:12:28;;;;;;;0.87;0.57;;;8.10;99.90;;;;;;7394749;19;20199;-75
2022/11/21 00:14:54;;;;;;;0.60;0.60;;;8.00;99.90;;;;;;7392684;19;20131;-76
2022/11/21 00:17:19;;;;;;;0.50;0.40;;;8.20;99.90;;;;;;7393104;19;20143;-76
2022/11/21 00:19:45;;;;;;;0.43;0.40;;;8.10;99.90;;;;;;7393711;19;20146;-73
2022/11/21 00:22:11;;;;;;;0.80;0.30;;;8.20;99.90;;;;;;7392692;19;20216;-76
2022/11/21 00:24:38;;;;;;;0.60;0.60;;;8.00;99.90;;;;;;7393572;19;20540;-76
2022/11/21 00:27:05;;;;;;;0.97;0.50;;;8.00;99.90;;;;;;7393213;19;20937;-77
2022/11/21 00:29:30;;;;;;;0.33;0.30;;;8.20;99.90;;;;;;7394631;19;20131;-76
2022/11/21 00:31:56;;;;;;;1.60;0.50;;;8.20;99.90;;;;;;7392119;19;20648;-77
2022/11/21 00:34:22;;;;;;;1.40;0.40;;;8.30;99.90;;;;;;7392737;19;20135;-75
2022/11/21 00:36:48;;;;;;;0.80;0.40;;;8.30;99.90;;;;;;7393549;19;20221;-77
2022/11/21 00:39:13;;;;;;;0.30;0.30;;;8.20;99.90;;;;;;7391328;19;20778;-75
2022/11/21 00:41:39;;;;;;;0.60;0.40;;;8.30;99.90;;;;;;7388569;19;20138;-77
2022/11/21 00:44:05;;;;;;;0.53;0.30;;;8.40;99.90;;;;;;7392617;19;20202;-76
2022/11/21 00:46:31;;;;;;;0.40;0.40;;;8.60;99.90;;;;;;7391848;19;20154;-76
2022/11/21 00:48:57;;;;;;;0.40;0.40;;;8.60;99.90;;;;;;7393859;19;20154;-75
2022/11/21 00:51:24;;;;;;;0.97;0.40;;;8.50;99.90;;;;;;7392630;19;20555;-75
2022/11/21 00:53:49;;;;;;;0.57;0.50;;;8.40;99.90;;;;;;7389942;19;20270;-74
2022/11/21 00:56:15;;;;;;;0.30;0.30;;;8.60;99.90;;;;;;7392077;19;20604;-74
2022/11/21 00:58:41;;;;;;;1.33;0.40;;;8.50;99.90;;;;;;7389915;19;20193;-75
2022/11/21 01:01:13;;;;;;;0.30;0.30;;;8.60;99.90;;;;;;7390849;19;20135;-76
2022/11/21 01:03:39;;;;;;;0.63;0.40;;;8.60;99.90;;;;;;7393058;19;20155;-75
2022/11/21 01:06:07;;;;;;;0.40;0.40;;;8.60;99.90;;;;;;7391831;19;20584;-75
2022/11/21 01:08:35;;;;;;;0.50;0.40;;;8.60;99.90;;;;;;7388133;19;20678;-77
2022/11/21 01:11:05;;;;;;;1.43;0.60;;;8.50;99.90;;;;;;7390296;19;20544;-75
2022/11/21 01:13:32;;;;;;;0.30;0.30;;;8.50;99.90;;;;;;7394055;19;20143;-75
2022/11/21 01:16:19;;;;;;;0.33;0.33;;;8.40;99.90;;;;;;7392379;19;20470;-75
2022/11/21 01:18:45;;;;;;;0.50;0.30;;;8.30;99.90;;;;;;7387616;19;20143;-75
2022/11/21 01:21:22;;;;;;;1.87;0.40;;;8.10;99.90;;;;;;7390635;19;20130;-77
2022/11/21 01:23:48;;;;;;;0.30;0.30;;;7.80;99.90;;;;;;7390237;19;20165;-75
2022/11/21 01:26:21;;;;;;;1.33;0.30;;;7.60;99.90;;;;;;7390521;19;20139;-77
2022/11/21 01:28:47;;;;;;;0.40;0.40;;;7.70;99.90;;;;;;7391655;19;20142;-76
2022/11/21 01:31:21;;;;;;;0.33;0.33;;;8.00;99.90;;;;;;7387783;19;20155;-76
2022/11/21 01:33:48;;;;;;;3.50;0.80;;;8.30;99.90;;;;;;7391833;19;20156;-76
2022/11/21 01:36:23;;;;;;;5.43;0.60;;;8.20;99.90;;;;;;7390804;19;20159;-75
2022/11/21 01:38:51;;;;;;;3.40;0.67;;;8.30;99.90;;;;;;7390571;19;20137;-76
2022/11/21 01:41:20;;;;;;;2.00;0.60;;;7.80;99.90;;;;;;7388398;19;20130;-75
2022/11/21 01:43:47;;;;;;;1.20;0.57;;;7.70;99.90;;;;;;7392484;19;20749;-76
2022/11/21 01:46:14;;;;;;;1.07;0.40;;;7.50;99.90;;;;;;7394159;19;20211;-76
2022/11/21 01:48:52;;;;;;;2.33;0.50;;;7.80;99.90;;;;;;7391119;19;20151;-76
2022/11/21 01:51:18;;;;;;;0.90;0.63;;;7.70;99.90;;;;;;7390776;19;20480;-76
2022/11/21 01:53:51;;;;;;;1.07;0.53;;;7.50;99.90;;;;;;7389632;19;20142;-77
2022/11/21 01:56:17;;;;;;;1.33;0.47;;;7.40;99.90;;;;;;7392934;19;20143;-77
2022/11/21 01:58:44;;;;;;;1.67;0.50;;;7.40;99.90;;;;;;7389458;19;20178;-76
2022/11/21 02:01:10;;;;;;;1.13;0.40;;;7.30;99.90;;;;;;7391995;19;20135;-76
2022/11/21 02:03:37;;;;;;;2.77;0.77;;;7.70;99.90;;;;;;7390822;19;20138;-77
2022/11/21 02:06:05;;;;;;;0.60;0.40;;;7.70;99.90;;;;;;7390752;19;20146;-76
2022/11/21 02:08:31;;;;;;;0.60;0.40;;;7.70;99.90;;;;;;7391412;19;20139;-78
2022/11/21 02:11:13;;;;;;;3.13;0.70;;;7.70;99.90;;;;;;7386843;19;20500;-79
2022/11/21 02:13:39;;;;;;;0.73;0.57;;;7.60;99.90;;;;;;7392386;19;20541;-76
2022/11/21 02:16:06;;;;;;;3.80;0.90;;;7.70;99.90;;;;;;7391738;19;20157;-77
2022/11/21 02:18:31;;;;;;;0.80;0.50;;;7.60;99.90;;;;;;7392755;19;20151;-76
2022/11/21 02:21:13;;;;;;;1.40;0.77;;;7.70;99.90;;;;;;7392251;19;20138;-77
2022/11/21 02:23:54;;;;;;;0.50;0.40;;;7.60;99.90;;;;;;7386012;19;20689;-76
2022/11/21 02:26:20;;;;;;;0.80;0.50;;;7.70;99.90;;;;;;7390318;19;20134;-76
2022/11/21 02:28:46;;;;;;;0.80;0.50;;;7.70;99.90;;;;;;7389312;19;20179;-77
2022/11/21 02:31:12;;;;;;;0.87;0.47;;;7.60;99.90;;;;;;7390147;19;20139;-76
2022/11/21 02:33:37;;;;;;;0.83;0.50;;;7.50;99.90;;;;;;7389371;19;20141;-77
2022/11/21 02:36:04;;;;;;;0.53;0.43;;;7.60;99.90;;;;;;7388839;19;20142;-76
2022/11/21 02:38:37;;;;;;;1.33;0.60;;;7.80;99.90;;;;;;7391201;19;20153;-77
2022/11/21 02:41:10;;;;;;;2.47;0.70;;;7.70;99.90;;;;;;7391543;19;20155;-76
2022/11/21 02:43:44;;;;;;;0.40;0.40;;;7.50;99.90;;;;;;7391365;19;20138;-77
2022/11/21 02:46:10;;;;;;;0.23;0.23;;;7.50;99.90;;;;;;7386476;19;20150;-76
2022/11/21 02:48:37;;;;;;;1.50;0.60;;;7.50;99.90;;;;;;7389013;19;20163;-76
2022/11/21 02:51:03;;;;;;;0.57;0.57;;;7.80;99.90;;;;;;7386267;19;20142;-77
2022/11/21 02:53:28;;;;;;;1.37;0.60;;;8.00;99.90;;;;;;7388066;19;20142;-77
2022/11/21 02:55:54;;;;;;;0.80;0.40;;;7.90;99.90;;;;;;7390735;19;20131;-77
2022/11/21 02:58:20;;;;;;;0.63;0.40;;;8.00;99.90;;;;;;7388836;19;20179;-77
2022/11/21 03:00:46;;;;;;;0.53;0.37;;;8.00;99.90;;;;;;7388711;19;20138;-77
2022/11/21 03:03:11;;;;;;;0.30;0.30;;;7.90;99.90;;;;;;7387879;19;20188;-76
2022/11/21 03:05:38;;;;;;;0.53;0.40;;;7.70;99.90;;;;;;7386843;19;20139;-76
2022/11/21 03:08:05;;;;;;;0.50;0.50;;;7.80;99.90;;;;;;7389734;19;20134;-77
2022/11/21 03:10:32;;;;;;;0.50;0.30;;;7.90;99.90;;;;;;7382749;19;20622;-76
2022/11/21 03:13:00;;;;;;;0.60;0.40;;;7.80;99.90;;;;;;7390498;19;20150;-77
2022/11/21 03:15:32;;;;;;;0.70;0.40;;;7.90;99.90;;;;;;7388605;19;20142;-78
2022/11/21 03:18:01;;;;;;;0.30;0.30;;;8.00;99.90;;;;;;7389766;19;20210;-76
2022/11/21 03:20:28;;;;;;;1.10;0.50;;;8.10;99.90;;;;;;7390811;19;20175;-77
2022/11/21 03:22:54;;;;;;;0.43;0.33;;;8.00;99.90;;;;;;7390741;19;20143;-76
2022/11/21 03:25:20;;;;;;;0.40;0.30;;;7.90;99.90;;;;;;7385696;19;20494;-76
2022/11/21 03:27:45;;;;;;;0.20;0.20;;;8.00;99.90;;;;;;7385309;19;20587;-77
2022/11/21 03:30:12;;;;;;;0.40;0.40;;;7.90;99.90;;;;;;7386023;19;20188;-76
2022/11/21 03:32:37;;;;;;;0.20;0.20;;;8.00;99.90;;;;;;7386859;19;20271;-77
2022/11/21 03:35:04;;;;;;;2.43;0.50;;;8.00;99.90;;;;;;7386362;19;20600;-76
2022/11/21 03:37:29;;;;;;;0.50;0.30;;;8.10;99.90;;;;;;7386103;19;20518;-76
2022/11/21 03:39:55;;;;;;;0.80;0.23;;;8.20;99.90;;;;;;7389649;19;20147;-75
2022/11/21 03:42:21;;;;;;;0.60;0.60;;;8.00;99.90;;;;;;7389385;19;20505;-76
2022/11/21 03:44:46;;;;;;;0.40;0.40;;;8.00;99.90;;;;;;7388373;19;20214;-76
2022/11/21 03:47:12;;;;;;;0.40;0.40;;;7.90;99.90;;;;;;7389491;19;20142;-75
2022/11/21 03:49:38;;;;;;;0.23;0.23;;;8.10;99.90;;;;;;7386449;19;20214;-75
2022/11/21 03:52:03;;;;;;;0.60;0.40;;;8.10;99.90;;;;;;7383592;19;20165;-77
2022/11/21 03:54:29;;;;;;;0.27;0.27;;;8.30;99.90;;;;;;7382402;19;20147;-76
2022/11/21 03:56:55;;;;;;;0.87;0.37;;;8.20;99.90;;;;;;7385169;19;20155;-77
2022/11/21 03:59:20;;;;;;;0.53;0.37;;;8.00;99.90;;;;;;7388466;19;20131;-79
2022/11/21 04:01:46;;;;;;;0.70;0.40;;;8.10;99.90;;;;;;7386719;19;20169;-78
2022/11/21 04:04:12;;;;;;;0.60;0.40;;;8.20;99.90;;;;;;7386142;19;20130;-80
2022/11/21 04:06:38;;;;;;;0.27;0.27;;;8.10;99.90;;;;;;7387912;19;20462;-78
2022/11/21 04:09:03;;;;;;;0.30;0.27;;;8.10;99.90;;;;;;7387020;19;20154;-80
2022/11/21 04:11:29;;;;;;;0.20;0.20;;;8.20;99.90;;;;;;7385195;19;20516;-78
2022/11/21 04:13:55;;;;;;;1.70;0.50;;;8.20;99.90;;;;;;7385549;19;20143;-78
2022/11/21 04:16:20;;;;;;;2.07;0.47;;;8.30;99.90;;;;;;7388010;19;20131;-78
2022/11/21 04:18:46;;;;;;;0.40;0.27;;;8.00;99.90;;;;;;7394995;19;20153;-80
2022/11/21 04:21:12;;;;;;;0.43;0.40;;;8.10;99.90;;;;;;7394071;19;20652;-79
2022/11/21 04:23:38;;;;;;;1.77;0.40;;;8.10;99.90;;;;;;7390234;19;20504;-79
2022/11/21 04:26:04;;;;;;;0.30;0.30;;;8.20;99.90;;;;;;7396337;19;20126;-79
2022/11/21 04:28:30;;;;;;;0.80;0.40;;;8.30;99.90;;;;;;7394920;19;20145;-79
2022/11/21 04:31:04;;;;;;;0.40;0.40;;;8.30;99.90;;;;;;7391810;19;20569;-80
2022/11/21 04:33:30;;;;;;;0.30;0.30;;;8.30;99.90;;;;;;7395672;19;20159;-78
2022/11/21 04:35:55;;;;;;;1.50;0.30;;;8.30;99.90;;;;;;7391742;19;20127;-79
2022/11/21 04:38:21;;;;;;;0.40;0.40;;;8.30;99.90;;;;;;7392606;19;20564;-79
2022/11/21 04:40:47;;;;;;;1.97;0.47;;;8.30;99.90;;;;;;7392454;19;20226;-81
2022/11/21 04:43:12;;;;;;;0.53;0.40;;;8.40;99.90;;;;;;7391888;19;20131;-79
2022/11/21 04:45:38;;;;;;;0.47;0.30;;;8.50;99.90;;;;;;7390790;19;20142;-79
2022/11/21 04:48:04;;;;;;;1.00;0.60;;;8.40;99.90;;;;;;7392248;19;20607;-79
2022/11/21 04:50:30;;;;;;;0.60;0.50;;;8.40;99.90;;;;;;7390077;19;20130;-79
2022/11/21 04:52:56;;;;;;;0.73;0.60;;;8.30;99.90;;;;;;7393608;19;20139;-78
2022/11/21 04:55:27;;;;;;;1.10;0.70;;;8.40;99.90;;;;;;7394733;19;20593;-78
2022/11/21 04:57:53;;;;;;;2.50;0.60;;;8.50;99.90;;;;;;7393577;19;20170;-79
2022/11/21 05:00:20;;;;;;;0.70;0.40;;;8.50;99.90;;;;;;7394978;19;20494;-79
2022/11/21 05:02:46;;;;;;;0.83;0.60;;;8.30;99.90;;;;;;7393637;19;20149;-79
2022/11/21 05:05:12;;;;;;;0.53;0.50;;;8.20;99.90;;;;;;7392853;19;20142;-79
2022/11/21 05:07:38;;;;;;;0.53;0.47;;;8.30;99.90;;;;;;7389219;19;20187;-78
2022/11/21 05:10:05;;;;;;;1.27;0.40;;;8.20;99.90;;;;;;7391608;19;20158;-80
2022/11/21 05:15:15;;;;;;;4.00;1.30;;;8.20;99.90;;;;;;7392886;19;20142;-79
2022/11/21 05:17:40;;;;;;;1.33;0.70;;;8.10;99.90;;;;;;7393709;19;20604;-79
2022/11/21 05:20:07;;;;;;;1.70;0.57;;;8.20;99.90;;;;;;7392683;19;20147;-78
2022/11/21 05:22:33;;;;;;;0.70;0.40;;;8.10;99.90;;;;;;7393384;19;20137;-79
2022/11/21 05:24:58;;;;;;;1.63;0.40;;;8.30;99.90;;;;;;7392882;19;20198;-78
2022/11/21 05:27:24;;;;;;;0.50;0.50;;;8.40;99.90;;;;;;7387279;19;20143;-78
2022/11/21 05:29:50;;;;;;;0.80;0.60;;;8.40;99.90;;;;;;7390527;19;20150;-78
2022/11/21 05:32:16;;;;;;;3.13;1.00;;;8.40;99.90;;;;;;7391402;19;20142;-79
2022/11/21 05:34:41;;;;;;;0.60;0.50;;;8.50;99.90;;;;;;7389777;19;20612;-81
2022/11/21 05:37:07;;;;;;;1.43;0.47;;;8.60;99.90;;;;;;7390213;19;20134;-79
2022/11/21 05:39:33;;;;;;;0.63;0.40;;;8.30;99.90;;;;;;7390384;19;20135;-80
2022/11/21 05:41:58;;;;;;;0.50;0.50;;;8.40;99.90;;;;;;7393287;19;20464;-80
2022/11/21 05:44:24;;;;;;;2.63;0.50;;;8.40;99.90;;;;;;7392400;19;20548;-79
2022/11/21 05:46:50;;;;;;;0.73;0.50;;;8.40;99.90;;;;;;7392087;19;20127;-79
2022/11/21 05:49:19;;;;;;;1.20;0.60;;;8.40;99.90;;;;;;7391127;19;20138;-79
2022/11/21 05:51:44;;;;;;;1.10;0.80;;;8.40;99.90;;;;;;7389716;19;20597;-78
2022/11/21 05:54:13;;;;;;;1.07;0.70;;;8.50;99.90;;;;;;7392960;19;20145;-78
2022/11/21 05:56:39;;;;;;;1.33;0.60;;;8.50;99.90;;;;;;7390359;19;20165;-79
2022/11/21 05:59:04;;;;;;;0.50;0.40;;;8.20;99.90;;;;;;7391293;19;20154;-79
2022/11/21 06:04:14;;;;;;;1.20;0.70;;;8.30;99.90;;;;;;7390452;19;20592;-78
2022/11/21 06:06:40;;;;;;;2.77;0.77;;;8.50;99.90;;;;;;7391081;19;20135;-79
2022/11/21 06:09:06;;;;;;;1.93;0.67;;;8.60;99.90;;;;;;7388791;19;20534;-79
2022/11/21 06:11:32;;;;;;;2.83;0.60;;;8.70;99.90;;;;;;7392640;19;20254;-79
2022/11/21 06:13:57;;;;;;;8.50;5.30;;;8.60;99.90;;;;;;7392468;19;20238;-79
2022/11/21 06:16:23;;;;;;;6.43;3.40;;;8.40;99.90;;;;;;7390016;19;20183;-79
2022/11/21 06:18:53;;;;;;;2.20;1.40;;;8.30;99.90;;;;;;7388610;19;20134;-79
2022/11/21 06:21:21;;;;;;;3.53;1.20;;;8.10;99.90;;;;;;7389013;19;20149;-80
2022/11/21 06:23:50;;;;;;;3.30;0.90;;;8.20;99.90;;;;;;7387112;19;20518;-79
2022/11/21 06:26:21;;;;;;;2.37;1.00;;;8.40;99.90;;;;;;7389007;19;20209;-79
2022/11/21 06:28:48;;;;;;;1.30;0.63;;;8.50;99.90;;;;;;7392841;19;20167;-79
2022/11/21 06:31:18;;;;;;;2.53;1.00;;;8.60;99.90;;;;;;7388143;19;20142;-78
2022/11/21 06:33:44;;;;;;;2.63;1.10;;;8.60;99.90;;;;;;7391618;19;20143;-78
2022/11/21 06:36:12;;;;;;;1.50;0.80;;;8.60;99.90;;;;;;7390424;19;20165;-78
2022/11/21 06:38:38;;;;;;;1.93;0.83;;;8.50;99.90;;;;;;7387732;19;20134;-78
2022/11/21 06:41:13;;;;;;;4.10;0.80;;;8.50;99.90;;;;;;7390165;19;20134;-78
2022/11/21 06:43:40;;;;;;;2.00;0.73;;;8.70;99.90;;;;;;7392024;19;20723;-78
2022/11/21 06:46:06;;;;;;;2.20;0.90;;;8.60;99.90;;;;;;7393041;19;20134;-79
2022/11/21 06:48:33;;;;;;;2.47;0.87;;;8.60;99.90;;;;;;7391732;19;20147;-79
2022/11/21 06:51:18;;;;;;;2.63;1.00;;;8.60;99.90;;;;;;7390048;19;20138;-79
2022/11/21 06:53:45;;;;;;;1.23;0.93;;;8.70;99.90;;;;;;7392508;19;20138;-78
2022/11/21 06:56:11;;;;;;;0.87;0.73;;;8.70;99.90;;;;;;7391668;19;20613;-79
2022/11/21 06:58:36;;;;;;;1.40;0.90;;;8.70;99.90;;;;;;7384628;19;20384;-78
2022/11/21 07:01:06;;;;;;;2.47;1.17;;;8.70;99.90;;;;;;7391360;19;20395;-78
2022/11/21 07:03:32;;;;;;;1.53;1.00;;;8.70;99.90;;;;;;7389248;19;20153;-77
2022/11/21 07:06:00;;;;;;;3.40;0.90;;;8.70;99.90;;;;;;7391089;19;20239;-78
2022/11/21 07:08:30;;;;;;;1.87;1.00;;;8.70;99.90;;;;;;7389992;19;20135;-78
2022/11/21 07:11:01;;;;;;;1.10;0.70;;;8.70;99.90;;;;;;7391164;19;20150;-79
2022/11/21 07:13:27;;;;;;;1.47;0.73;;;8.60;99.90;;;;;;7392404;19;20138;-78
2022/11/21 07:15:54;;;;;;;1.33;0.80;;;8.60;99.90;;;;;;7390967;19;20146;-78
2022/11/21 07:18:21;;;;;;;1.27;0.70;;;8.50;99.90;;;;;;7389399;19;20142;-78
2022/11/21 07:20:48;;;;;;;2.23;0.83;;;8.60;99.90;;;;;;7391053;19;20146;-78
2022/11/21 07:23:14;;;;;;;1.20;0.50;;;8.50;99.90;;;;;;7392026;19;20145;-78
2022/11/21 07:25:40;;;;;;;25.20;14.23;;;8.30;99.90;;;;;;7388680;19;20898;-76
2022/11/21 07:28:07;;;;;;;5.93;3.27;;;8.20;99.90;;;;;;7392246;19;20130;-77
2022/11/21 07:30:35;;;;;;;5.07;2.30;;;8.30;99.90;;;;;;7389173;19;20127;-77
2022/11/21 07:33:04;;;;;;;2.60;1.23;;;8.30;99.90;;;;;;7389166;19;20135;-77
2022/11/21 07:35:31;;;;;;;3.97;1.17;;;8.50;99.90;;;;;;7387300;19;20134;-76
2022/11/21 07:37:57;;;;;;;2.30;1.17;;;8.50;99.90;;;;;;7389850;19;20130;-77
2022/11/21 07:40:22;;;;;;;1.97;1.30;;;8.50;99.90;;;;;;7389206;19;20146;-77
2022/11/21 07:42:48;;;;;;;2.03;1.20;;;8.40;99.90;;;;;;7388395;19;20148;-77
2022/11/21 07:45:15;;;;;;;4.03;1.37;;;8.40;99.90;;;;;;7389097;19;20131;-78
2022/11/21 07:47:41;;;;;;;2.53;1.17;;;8.40;99.90;;;;;;7387685;19;20139;-77
2022/11/21 07:50:09;;;;;;;9.20;4.40;;;8.40;99.90;;;;;;7389488;19;20371;-75
2022/11/21 07:52:35;;;;;;;2.80;1.50;;;8.20;99.90;;;;;;7394210;19;20163;-76
2022/11/21 07:55:02;;;;;;;1.90;1.20;;;8.20;99.90;;;;;;7395709;19;20155;-76
2022/11/21 07:57:29;;;;;;;2.33;1.40;;;8.30;99.90;;;;;;7393514;19;20189;-75
2022/11/21 07:59:54;;;;;;;3.13;1.23;;;8.50;99.90;;;;;;7394194;19;20146;-76
2022/11/21 08:02:26;;;;;;;2.60;0.90;;;8.40;99.90;;;;;;7400172;19;20152;-75
2022/11/21 08:04:53;;;;;;;1.20;1.00;;;8.50;99.90;;;;;;7400802;19;20534;-75
2022/11/21 08:07:21;;;;;;;3.20;1.03;;;8.50;99.90;;;;;;7397569;19;20143;-74
2022/11/21 08:09:47;;;;;;;3.47;1.20;;;8.30;99.90;;;;;;7397448;19;20570;-77
2022/11/21 08:12:13;;;;;;;1.77;1.10;;;8.20;99.90;;;;;;7398423;19;20126;-76
2022/11/21 08:14:39;;;;;;;2.53;1.03;;;8.40;99.90;;;;;;7397344;19;20154;-76
2022/11/21 08:17:08;;;;;;;4.30;1.30;;;8.40;99.90;;;;;;7394076;19;20619;-76
2022/11/21 08:19:34;;;;;;;4.43;1.23;;;8.20;99.90;;;;;;7397411;19;20139;-76
2022/11/21 08:22:00;;;;;;;7.83;2.17;;;8.30;99.90;;;;;;7395691;19;20167;-76
2022/11/21 08:24:26;;;;;;;3.23;1.47;;;8.30;99.90;;;;;;7394259;19;20141;-77
2022/11/21 08:26:52;;;;;;;7.07;3.53;;;8.30;99.90;;;;;;7390864;19;20584;-76
2022/11/21 08:29:18;;;;;;;3.70;1.63;;;8.30;99.90;;;;;;7389917;19;20157;-77
2022/11/21 08:31:45;;;;;;;3.00;1.17;;;8.40;99.90;;;;;;7392174;19;20154;-77
2022/11/21 08:34:11;;;;;;;3.23;1.10;;;8.30;99.90;;;;;;7393275;19;20165;-77
2022/11/21 08:36:37;;;;;;;2.47;1.20;;;8.30;99.90;;;;;;7396455;19;20215;-77
2022/11/21 08:39:03;;;;;;;13.20;6.53;;;8.40;99.90;;;;;;7395656;19;20599;-78
2022/11/21 08:44:14;;;;;;;5.73;2.77;;;8.40;99.90;;;;;;7394240;19;20715;-76
2022/11/21 08:46:40;;;;;;;4.23;1.43;;;8.30;99.90;;;;;;7394687;19;20142;-76
2022/11/21 08:49:07;;;;;;;5.60;3.40;;;8.20;99.90;;;;;;7396517;19;20139;-77
2022/11/21 08:51:33;;;;;;;22.33;11.90;;;8.10;99.90;;;;;;7399150;19;20134;-76
2022/11/21 08:53:59;;;;;;;4.90;3.10;;;8.20;99.90;;;;;;7397578;19;20202;-76
2022/11/21 08:56:25;;;;;;;2.70;1.73;;;8.30;99.90;;;;;;7395653;19;20786;-76
2022/11/21 08:58:51;;;;;;;2.47;1.50;;;8.30;99.90;;;;;;7394455;19;20158;-77
2022/11/21 09:01:17;;;;;;;4.27;2.70;;;8.30;99.90;;;;;;7394302;19;20166;-77
2022/11/21 09:03:43;;;;;;;2.47;1.80;;;8.50;99.90;;;;;;7395104;19;20572;-76
2022/11/21 09:06:09;;;;;;;5.90;1.70;;;8.40;99.90;;;;;;7393880;19;20488;-79
2022/11/21 09:08:35;;;;;;;6.87;2.00;;;8.60;99.90;;;;;;7393096;19;20158;-75
2022/11/21 09:11:06;;;;;;;10.33;4.33;;;8.50;99.90;;;;;;7389604;19;20892;-76
2022/11/21 09:13:32;;;;;;;4.47;2.30;;;8.60;99.90;;;;;;7393584;19;20278;-76
2022/11/21 09:18:43;;;;;;;2.50;1.30;;;8.60;99.90;;;;;;7396402;19;20135;-77
2022/11/21 09:21:14;;;;;;;4.00;1.97;;;8.60;99.90;;;;;;7391789;19;20230;-77
2022/11/21 09:23:40;;;;;;;2.83;1.23;;;8.70;99.90;;;;;;7393568;19;20142;-77
2022/11/21 09:26:07;;;;;;;3.80;1.33;;;8.70;99.90;;;;;;7395534;19;20135;-76
2022/11/21 09:28:37;;;;;;;7.83;3.67;;;8.70;99.90;;;;;;7393111;19;20514;-77
2022/11/21 09:31:04;;;;;;;6.17;2.73;;;8.60;99.90;;;;;;7389730;19;20154;-78
2022/11/21 09:33:30;;;;;;;3.47;1.80;;;8.80;99.90;;;;;;7392538;19;20138;-77
2022/11/21 09:35:59;;;;;;;4.37;1.50;;;8.80;99.90;;;;;;7393259;19;20138;-77
2022/11/21 09:38:28;;;;;;;1.33;0.80;;;8.80;99.90;;;;;;7394922;19;20150;-76
2022/11/21 09:41:50;;;;;;;2.97;1.50;;;8.80;99.90;;;;;;7394229;19;20135;-77
2022/11/21 09:44:07;;;;;;;3.20;1.20;;;9.00;99.90;;;;;;7392667;19;20135;-77
2022/11/21 09:46:41;;;;;;;4.83;1.17;;;9.30;99.90;;;;;;7393935;19;20153;-77
2022/11/21 09:49:11;;;;;;;2.47;1.00;;;9.20;99.90;;;;;;7391164;19;20135;-77
2022/11/21 09:51:40;;;;;;;3.90;1.10;;;9.20;99.90;;;;;;7389879;19;20159;-77
2022/11/21 09:54:18;;;;;;;5.27;1.30;;;9.40;99.90;;;;;;7392202;19;20139;-77
2022/11/21 09:56:46;;;;;;;5.00;1.70;;;9.50;99.90;;;;;;7392727;19;20157;-77
2022/11/21 09:59:33;;;;;;;6.13;2.30;;;9.50;99.90;;;;;;7389331;19;20139;-77
2022/11/21 10:02:00;;;;;;;2.47;1.33;;;9.60;99.90;;;;;;7391814;19;20150;-77
2022/11/21 10:04:27;;;;;;;4.17;1.47;;;9.40;99.90;;;;;;7387766;19;20158;-77
2022/11/21 10:06:55;;;;;;;3.27;1.10;;;9.60;99.90;;;;;;7390168;19;20546;-76
2022/11/21 10:09:40;;;;;;;3.73;1.30;;;9.70;99.90;;;;;;7390913;19;20161;-76
2022/11/21 10:12:36;;;;;;;2.72;1.20;;;9.90;99.90;;;;;;7389932;19;20407;-77
2022/11/21 10:15:07;;;;;;;2.73;1.30;;;9.80;99.90;;;;;;7392754;19;20182;-75
2022/11/21 10:18:00;;;;;;;2.90;1.00;;;9.60;99.90;;;;;;7397190;19;20138;-74
2022/11/21 10:20:40;;;;;;;6.90;1.70;;;9.50;99.90;;;;;;7391903;19;20149;-75
2022/11/21 10:23:33;;;;;;;4.47;3.00;;;9.90;99.90;;;;;;7390630;19;20206;-77
2022/11/21 10:26:16;;;;;;;2.43;1.30;;;10.00;99.90;;;;;;7390997;19;20170;-77
2022/11/21 10:28:50;;;;;;;5.70;1.40;;;10.10;99.90;;;;;;7389237;19;20162;-77
2022/11/21 10:31:17;;;;;;;4.70;2.17;;;10.10;99.90;;;;;;7390533;19;20166;-77
2022/11/21 10:33:44;;;;;;;8.00;1.80;;;10.00;99.90;;;;;;7391583;19;20138;-77
2022/11/21 10:36:29;;;;;;;4.23;1.77;;;10.20;99.90;;;;;;7392696;19;20143;-75
2022/11/21 10:38:59;;;;;;;4.83;1.17;;;10.20;99.90;;;;;;7389197;19;20138;-76
2022/11/21 10:41:50;;;;;;;4.53;1.23;;;10.50;99.90;;;;;;7388377;19;20138;-77
2022/11/21 10:47:32;;;;;;;4.03;0.90;;;10.50;99.90;;;;;;7391274;19;20153;-77
2022/11/21 10:50:12;;;;;;;2.23;1.20;;;10.40;99.90;;;;;;7391341;19;20135;-76
2022/11/21 10:52:48;;;;;;;3.80;0.93;;;10.40;99.90;;;;;;7394094;19;20135;-76
2022/11/21 10:55:15;;;;;;;2.63;1.20;;;10.60;99.90;;;;;;7395825;19;20164;-76
2022/11/21 10:57:47;;;;;;;1.70;0.90;;;10.80;99.90;;;;;;7389189;19;20530;-77
2022/11/21 11:00:19;;;;;;;3.13;1.30;;;10.70;99.90;;;;;;7393482;19;20154;-77
2022/11/21 11:02:54;;;;;;;4.20;1.23;;;10.70;99.90;;;;;;7393887;19;20573;-77
2022/11/21 11:05:28;;;;;;;3.40;1.20;;;10.80;99.90;;;;;;7389808;19;20150;-78
2022/11/21 11:08:13;;;;;;;4.73;1.30;;;10.80;99.90;;;;;;7391696;19;20592;-77
2022/11/21 11:11:00;;;;;;;1.37;0.80;;;10.60;99.90;;;;;;7390922;19;20221;-77
2022/11/21 11:13:35;;;;;;;3.27;1.10;;;10.40;99.90;;;;;;7392145;19;20142;-76
2022/11/21 11:16:10;;;;;;;5.10;1.53;;;10.70;99.90;;;;;;7390414;19;20168;-77
2022/11/21 11:19:07;;;;;;;3.30;1.57;;;10.70;99.90;;;;;;7389276;19;20165;-78
2022/11/21 11:21:43;;;;;;;4.87;1.37;;;10.90;99.90;;;;;;7386575;19;20222;-76
2022/11/21 11:24:08;;;;;;;5.50;1.90;;;10.80;99.90;;;;;;7388593;19;20146;-78
2022/11/21 11:26:48;;;;;;;2.77;1.13;;;10.90;99.90;;;;;;7388586;19;20908;-77
2022/11/21 11:29:30;;;;;;;6.60;1.80;;;10.80;99.90;;;;;;7396211;19;20166;-78
2022/11/21 11:32:03;;;;;;;6.33;1.37;;;10.80;99.90;;;;;;7390167;19;20146;-78
2022/11/21 11:34:51;;;;;;;2.90;1.20;;;11.00;99.90;;;;;;7390853;19;20581;-77
2022/11/21 11:37:28;;;;;;;3.67;1.67;;;10.90;99.90;;;;;;7385649;19;20853;-76
2022/11/21 11:40:13;;;;;;;2.63;1.40;;;11.00;99.90;;;;;;7385023;19;20134;-77
2022/11/21 11:49:20;;;;;;;2.33;1.17;;;10.60;99.90;;;;;;7390261;19;20210;-78
2022/11/21 11:51:51;;;;;;;3.23;0.90;;;10.90;99.90;;;;;;7388980;19;20223;-78
2022/11/21 11:54:22;;;;;;;2.57;1.13;;;10.80;99.90;;;;;;7388951;19;20146;-77
2022/11/21 11:56:48;;;;;;;1.87;0.83;;;10.90;99.90;;;;;;7382803;19;20146;-78
2022/11/21 11:59:20;;;;;;;2.40;0.73;;;11.00;99.90;;;;;;7385399;19;20586;-79
2022/11/21 12:02:16;;;;;;;2.83;0.90;;;10.90;99.90;;;;;;7389188;19;20464;-78
2022/11/21 12:05:10;;;;;;;2.47;0.90;;;10.70;99.90;;;;;;7388459;19;20218;-79
2022/11/21 12:07:50;;;;;;;1.90;0.80;;;10.70;99.90;;;;;;7386799;19;20153;-78
2022/11/21 12:13:34;;;;;;;7.20;1.20;;;11.10;99.90;;;;;;7387721;19;20153;-78
2022/11/21 12:16:05;;;;;;;3.40;1.10;;;11.30;99.90;;;;;;7384312;19;20242;-78
2022/11/21 12:18:44;;;;;;;3.43;1.10;;;11.20;99.90;;;;;;7384179;19;20157;-77
2022/11/21 12:21:14;;;;;;;2.37;1.67;;;11.10;99.90;;;;;;7384326;19;20135;-78
2022/11/21 12:23:55;;;;;;;3.37;1.00;;;11.10;99.90;;;;;;7373980;19;20171;-77
2022/11/21 12:26:30;;;;;;;1.07;0.77;;;11.00;99.90;;;;;;7380438;19;20247;-79
2022/11/21 12:29:38;;;;;;;4.17;1.47;;;11.20;99.90;;;;;;7376146;19;20168;-77
2022/11/21 12:32:31;;;;;;;6.37;2.07;;;11.20;99.90;;;;;;7369303;19;20182;-76
2022/11/21 12:35:15;;;;;;;3.37;1.30;;;11.20;99.90;;;;;;7371680;19;20623;-78
2022/11/21 12:38:11;;;;;;;2.67;1.17;;;11.10;99.90;;;;;;7377723;19;20149;-76
2022/11/21 12:40:49;;;;;;;3.43;1.30;;;11.10;99.90;;;;;;7384326;19;20538;-78
2022/11/21 12:43:48;;;;;;;2.30;1.13;;;11.20;99.90;;;;;;7389479;19;20138;-78
2022/11/21 12:46:30;;;;;;;1.33;0.70;;;11.30;99.90;;;;;;7390276;19;20143;-78
2022/11/21 12:55:32;;;;;;;3.33;0.93;;;11.30;99.90;;;;;;7391698;19;20618;-77
2022/11/21 12:58:21;;;;;;;2.40;1.13;;;11.70;99.90;;;;;;7398863;19;20151;-77
2022/11/21 13:01:14;;;;;;;4.60;1.40;;;11.80;99.90;;;;;;7391435;19;20162;-77
2022/11/21 13:03:54;;;;;;;3.53;1.30;;;11.70;99.90;;;;;;7391081;19;20302;-77
2022/11/21 13:06:31;;;;;;;2.57;0.87;;;11.70;99.90;;;;;;7392222;19;20609;-76
2022/11/21 13:09:01;;;;;;;2.63;1.00;;;11.80;99.90;;;;;;7391424;19;20143;-77
2022/11/21 13:12:00;;;;;;;2.10;0.70;;;11.70;99.90;;;;;;7388421;19;20172;-77
2022/11/21 13:14:38;;;;;;;6.77;1.27;;;11.50;99.90;;;;;;7389758;19;20655;-77
2022/11/21 13:17:27;;;;;;;2.10;0.93;;;11.70;99.90;;;;;;7392262;19;20165;-77
2022/11/21 13:20:05;;;;;;;2.03;1.07;;;11.70;99.90;;;;;;7390658;19;20146;-77
2022/11/21 13:22:52;;;;;;;2.53;0.90;;;11.70;99.90;;;;;;7392739;19;20150;-77
2022/11/21 13:25:30;;;;;;;3.17;0.80;;;11.70;99.90;;;;;;7390300;19;20210;-78
2022/11/21 13:28:18;;;;;;;6.50;0.93;;;11.80;99.90;;;;;;7391257;19;20585;-78
2022/11/21 13:30:50;;;;;;;6.87;0.90;;;11.70;99.90;;;;;;7390798;19;20486;-80
2022/11/21 13:33:34;;;;;;;2.73;0.93;;;11.50;99.90;;;;;;7390153;19;20153;-77
2022/11/21 13:36:10;;;;;;;4.93;1.43;;;11.30;99.90;;;;;;7391733;19;20143;-76
2022/11/21 13:38:53;;;;;;;1.63;1.00;;;11.50;99.90;;;;;;7391417;19;20161;-76
2022/11/21 13:44:32;;;;;;;3.27;0.93;;;11.50;99.90;;;;;;7391634;19;20559;-76